createdAt,value
2023-03-21T00:00:41.139Z,11.35
2023-03-21T00:03:28.976Z,12.82
2023-03-21T00:06:16.772Z,13.85
2023-03-21T00:09:04.746Z,11.20
2023-03-21T00:11:52.600Z,9.85
2023-03-21T00:14:40.485Z,8.20
2023-03-21T00:17:32.937Z,8.70
2023-03-21T00:20:21.058Z,9.30
2023-03-21T00:23:08.787Z,9.07
2023-03-21T00:25:56.949Z,8.98
2023-03-21T00:28:44.661Z,8.70
2023-03-21T00:31:33.729Z,8.85
2023-03-21T00:34:31.675Z,10.32
2023-03-21T00:37:29.295Z,8.57
2023-03-21T00:40:26.694Z,7.60
2023-03-21T00:43:19.688Z,6.57
2023-03-21T00:46:07.886Z,7.40
2023-03-21T00:48:56.256Z,7.10
2023-03-21T00:51:44.728Z,6.13
2023-03-21T00:54:33.202Z,6.43
2023-03-21T00:57:29.323Z,6.18
2023-03-21T01:00:24.403Z,7.68
2023-03-21T01:03:23.899Z,8.77
2023-03-21T01:06:13.926Z,7.82
2023-03-21T01:09:01.842Z,8.10
2023-03-21T01:11:50.801Z,7.53
2023-03-21T01:14:38.530Z,8.27
2023-03-21T01:17:26.262Z,7.28
2023-03-21T01:20:13.949Z,8.05
2023-03-21T01:23:01.683Z,6.30
2023-03-21T01:25:50.987Z,6.70
2023-03-21T01:28:41.551Z,7.07
2023-03-21T01:31:29.229Z,6.55
2023-03-21T01:34:17.070Z,5.57
2023-03-21T01:37:04.889Z,6.30
2023-03-21T01:40:05.197Z,6.50
2023-03-21T01:42:53.210Z,6.45
2023-03-21T01:46:08.519Z,7.65
2023-03-21T01:49:27.855Z,8.10
2023-03-21T01:52:38.909Z,8.40
2023-03-21T01:55:48.101Z,6.78
2023-03-21T01:58:51.262Z,7.85
2023-03-21T02:02:07.540Z,7.30
2023-03-21T02:05:04.188Z,7.20
2023-03-21T02:07:53.060Z,8.43
2023-03-21T02:10:46.039Z,9.68
2023-03-21T02:13:41.183Z,8.85
2023-03-21T02:16:47.768Z,10.55
2023-03-21T02:19:53.346Z,9.63
2023-03-21T02:22:47.057Z,12.82
2023-03-21T02:25:43.943Z,13.32
2023-03-21T02:28:45.968Z,16.25
2023-03-21T02:32:16.533Z,12.73
2023-03-21T02:36:14.429Z,12.90
2023-03-21T02:39:27.147Z,12.00
2023-03-21T02:42:30.595Z,11.95
2023-03-21T02:45:21.645Z,16.13
2023-03-21T02:48:30.969Z,14.93
2023-03-21T02:51:24.268Z,15.45
2023-03-21T02:54:30.349Z,17.88
2023-03-21T02:57:27.048Z,19.05
2023-03-21T03:00:23.579Z,22.00
2023-03-21T03:03:20.950Z,24.83
2023-03-21T03:06:38.890Z,15.73
2023-03-21T03:09:57.823Z,14.80
2023-03-21T03:13:07.313Z,14.23
2023-03-21T03:16:16.988Z,14.38
2023-03-21T03:19:28.051Z,13.82
2023-03-21T03:22:24.005Z,13.65
2023-03-21T03:25:24.999Z,12.57
2023-03-21T03:28:26.775Z,13.45
2023-03-21T03:31:22.189Z,13.52
2023-03-21T03:34:21.384Z,11.63
2023-03-21T03:37:14.538Z,11.73
2023-03-21T03:40:16.987Z,11.10
2023-03-21T03:43:20.804Z,12.43
2023-03-21T03:46:19.267Z,11.23
2023-03-21T03:49:14.107Z,13.75
2023-03-21T03:52:13.114Z,13.48
2023-03-21T03:55:13.726Z,12.38
2023-03-21T03:58:10.632Z,12.85
2023-03-21T04:01:10.106Z,12.43
2023-03-21T04:04:12.204Z,12.27
2023-03-21T04:09:54.138Z,12.93
2023-03-21T04:12:42.218Z,14.23
2023-03-21T04:15:40.732Z,14.05
2023-03-21T04:18:36.324Z,13.07
2023-03-21T04:21:24.077Z,13.80
2023-03-21T04:24:12.356Z,14.73
2023-03-21T04:27:01.299Z,13.75
2023-03-21T04:30:00.886Z,14.23
2023-03-21T04:33:08.899Z,16.63
2023-03-21T04:35:59.459Z,18.30
2023-03-21T04:38:51.677Z,21.35
2023-03-21T04:41:41.124Z,14.77
2023-03-21T04:44:28.796Z,15.70
2023-03-21T04:47:17.148Z,13.93
2023-03-21T04:50:05.348Z,14.35
2023-03-21T04:52:53.174Z,14.52
2023-03-21T04:55:43.613Z,15.20
2023-03-21T04:58:31.305Z,15.35
2023-03-21T05:01:21.001Z,14.15
2023-03-21T05:04:09.110Z,14.73
2023-03-21T05:06:57.611Z,16.45
2023-03-21T05:09:52.722Z,22.33
2023-03-21T05:12:41.531Z,20.77
2023-03-21T05:15:29.702Z,16.27
2023-03-21T05:18:25.025Z,15.90
2023-03-21T05:21:41.972Z,16.70
2023-03-21T05:24:37.594Z,17.48
2023-03-21T05:27:34.446Z,16.88
2023-03-21T05:30:25.406Z,16.55
2023-03-21T05:33:17.960Z,16.40
2023-03-21T05:36:09.106Z,19.63
2023-03-21T05:38:56.900Z,26.98
2023-03-21T05:41:44.815Z,23.95
2023-03-21T05:44:32.564Z,19.88
2023-03-21T05:47:22.443Z,19.17
2023-03-21T05:50:13.478Z,19.60
2023-03-21T05:53:05.004Z,16.52
2023-03-21T05:55:53.343Z,16.98
2023-03-21T05:58:59.321Z,16.80
2023-03-21T06:01:48.043Z,16.65
2023-03-21T06:04:37.247Z,17.58
2023-03-21T06:07:25.610Z,16.95
2023-03-21T06:10:13.663Z,17.75
2023-03-21T06:13:05.583Z,18.50
2023-03-21T06:15:54.627Z,17.27
2023-03-21T06:18:47.527Z,12.20
2023-03-21T06:21:54.528Z,11.25
2023-03-21T06:24:42.259Z,10.52
2023-03-21T06:27:30.071Z,9.27
2023-03-21T06:30:18.525Z,9.25
2023-03-21T06:33:26.483Z,9.95
2023-03-21T06:36:16.457Z,10.68
2023-03-21T06:39:09.046Z,8.85
2023-03-21T06:42:01.429Z,9.50
2023-03-21T06:44:50.053Z,9.40
2023-03-21T06:47:37.770Z,8.27
2023-03-21T06:50:30.628Z,9.35
2023-03-21T06:53:21.300Z,7.13
2023-03-21T06:56:38.268Z,8.60
2023-03-21T06:59:26.438Z,8.00
2023-03-21T07:02:22.671Z,7.60
2023-03-21T07:05:29.171Z,8.20
2023-03-21T07:08:17.800Z,8.30
2023-03-21T07:11:06.764Z,8.90
2023-03-21T07:13:55.112Z,7.25
2023-03-21T07:16:44.137Z,7.70
2023-03-21T07:19:33.850Z,7.78
2023-03-21T07:22:21.589Z,7.22
2023-03-21T07:25:10.806Z,4.40
2023-03-21T07:28:01.380Z,4.50
2023-03-21T07:30:58.469Z,3.15
2023-03-21T07:33:46.560Z,2.22
2023-03-21T07:36:34.412Z,2.88
2023-03-21T07:39:23.865Z,2.95
2023-03-21T07:42:13.188Z,2.85
2023-03-21T07:45:01.085Z,2.72
2023-03-21T07:47:54.047Z,3.28
2023-03-21T07:50:41.992Z,2.55
2023-03-21T07:53:29.805Z,3.33
2023-03-21T07:56:17.635Z,2.70
2023-03-21T07:59:05.870Z,2.35
2023-03-21T08:01:53.593Z,1.90
2023-03-21T08:04:41.233Z,2.22
2023-03-21T08:07:28.867Z,2.80
2023-03-21T08:10:17.777Z,2.15
2023-03-21T08:13:06.662Z,2.10
2023-03-21T08:15:54.279Z,2.40
2023-03-21T08:18:42.980Z,2.00
2023-03-21T08:21:30.566Z,1.98
2023-03-21T08:24:18.239Z,2.25
2023-03-21T08:27:06.158Z,2.13
2023-03-21T08:29:54.050Z,1.77
2023-03-21T08:32:42.489Z,1.45
2023-03-21T08:35:31.838Z,1.75
2023-03-21T08:38:19.473Z,2.35
2023-03-21T08:41:07.464Z,2.70
2023-03-21T08:43:58.786Z,2.25
2023-03-21T08:46:46.496Z,2.42
2023-03-21T08:49:36.236Z,2.42
2023-03-21T08:52:23.875Z,2.95
2023-03-21T08:55:13.109Z,2.90
2023-03-21T08:58:01.234Z,2.35
2023-03-21T09:00:48.812Z,3.00
2023-03-21T09:03:36.435Z,2.78
2023-03-21T09:06:25.059Z,3.80
2023-03-21T09:09:12.981Z,4.85
2023-03-21T09:12:01.174Z,4.13
2023-03-21T09:14:49.038Z,4.68
2023-03-21T09:17:36.805Z,4.65
2023-03-21T09:20:31.358Z,4.55
2023-03-21T09:23:22.780Z,4.32
2023-03-21T09:26:10.989Z,4.35
2023-03-21T09:28:59.208Z,4.22
2023-03-21T09:31:47.633Z,3.90
2023-03-21T09:34:37.226Z,4.80
2023-03-21T09:37:24.994Z,3.97
2023-03-21T09:40:20.849Z,3.80
2023-03-21T09:43:24.042Z,3.65
2023-03-21T09:46:26.076Z,4.13
2023-03-21T09:49:31.492Z,4.30
2023-03-21T09:52:34.624Z,5.35
2023-03-21T09:55:37.983Z,4.63
2023-03-21T09:58:46.549Z,5.82
2023-03-21T10:01:42.181Z,5.00
2023-03-21T10:04:33.285Z,4.05
2023-03-21T10:07:21.332Z,5.35
2023-03-21T10:10:19.306Z,7.90
2023-03-21T10:13:17.642Z,5.95
2023-03-21T10:16:32.618Z,5.68
2023-03-21T10:19:23.698Z,5.75
2023-03-21T10:22:11.550Z,5.33
2023-03-21T10:24:59.219Z,5.82
2023-03-21T10:27:48.399Z,5.15
2023-03-21T10:30:43.769Z,5.97
2023-03-21T10:33:37.452Z,5.68
2023-03-21T10:36:31.830Z,5.63
2023-03-21T10:39:19.392Z,5.43
2023-03-21T10:42:10.907Z,5.30
2023-03-21T10:44:58.825Z,5.30
2023-03-21T10:47:50.743Z,5.85
2023-03-21T10:53:33.586Z,6.57
2023-03-21T10:56:28.093Z,6.32
2023-03-21T10:59:20.994Z,6.43
2023-03-21T11:02:19.827Z,6.45
2023-03-21T11:05:20.760Z,7.13
2023-03-21T11:08:15.324Z,6.93
2023-03-21T11:11:10.198Z,6.25
2023-03-21T11:14:07.618Z,7.30
2023-03-21T11:16:58.477Z,7.10
2023-03-21T11:20:00.277Z,7.68
2023-03-21T11:22:49.775Z,7.25
2023-03-21T11:25:41.750Z,7.53
2023-03-21T11:31:41.775Z,6.35
2023-03-21T11:34:51.373Z,6.07
2023-03-21T11:37:46.614Z,5.57
2023-03-21T11:40:36.555Z,7.13
2023-03-21T11:43:32.212Z,5.22
2023-03-21T11:46:32.137Z,5.63
2023-03-21T11:49:21.447Z,5.93
2023-03-21T11:52:13.586Z,5.00
2023-03-21T11:55:16.894Z,4.25
2023-03-21T11:58:23.247Z,6.60
2023-03-21T12:01:22.446Z,6.20
2023-03-21T12:04:33.359Z,6.25
2023-03-21T12:07:23.999Z,5.28
2023-03-21T12:10:20.853Z,6.30
2023-03-21T12:13:36.140Z,5.68
2023-03-21T12:16:54.274Z,6.50
2023-03-21T12:20:10.566Z,6.75
2023-03-21T12:23:17.176Z,5.53
2023-03-21T12:26:27.952Z,5.80
2023-03-21T12:29:40.449Z,5.22
2023-03-21T12:32:49.967Z,4.88
2023-03-21T12:36:18.688Z,5.80
2023-03-21T12:39:30.710Z,4.65
2023-03-21T12:42:34.865Z,5.72
2023-03-21T12:45:34.187Z,5.70
2023-03-21T12:48:33.885Z,4.80
2023-03-21T12:51:29.607Z,5.18
2023-03-21T12:54:38.352Z,6.15
2023-03-21T12:57:35.737Z,6.03
2023-03-21T13:00:38.541Z,4.82
2023-03-21T13:03:44.034Z,5.63
2023-03-21T13:06:32.089Z,6.43
2023-03-21T13:09:37.391Z,5.22
2023-03-21T13:12:44.443Z,5.38
2023-03-21T13:15:38.128Z,5.40
2023-03-21T13:18:50.337Z,5.07
2023-03-21T13:21:46.599Z,5.22
2023-03-21T13:24:49.539Z,4.80
2023-03-21T13:27:41.943Z,5.20
2023-03-21T13:30:32.730Z,6.55
2023-03-21T13:33:30.026Z,6.70
2023-03-21T13:36:24.763Z,6.13
2023-03-21T13:39:44.513Z,6.55
2023-03-21T13:42:34.349Z,7.00
2023-03-21T13:45:32.746Z,6.88
2023-03-21T13:48:57.990Z,6.25
2023-03-21T13:51:58.711Z,7.00
2023-03-21T13:54:55.376Z,8.85
2023-03-21T13:57:47.679Z,7.22
2023-03-21T14:00:40.014Z,9.02
2023-03-21T14:03:34.098Z,8.35
2023-03-21T14:06:21.942Z,8.35
2023-03-21T14:09:15.851Z,8.05
2023-03-21T14:12:08.179Z,8.68
2023-03-21T14:15:28.060Z,9.10
2023-03-21T14:18:27.994Z,8.68
2023-03-21T14:21:30.566Z,8.93
2023-03-21T14:24:20.174Z,8.93
2023-03-21T14:27:12.031Z,8.48
2023-03-21T14:30:01.296Z,7.57
2023-03-21T14:32:54.401Z,8.32
2023-03-21T14:35:46.307Z,7.38
2023-03-21T14:38:37.108Z,7.70
2023-03-21T14:41:31.114Z,8.20
2023-03-21T14:44:28.125Z,7.72
2023-03-21T14:47:27.334Z,7.78
2023-03-21T14:50:15.136Z,9.18
2023-03-21T14:53:03.017Z,8.70
2023-03-21T14:56:23.085Z,8.85
2023-03-21T14:59:14.830Z,7.65
2023-03-21T15:02:18.387Z,8.50
2023-03-21T15:05:19.018Z,7.90
2023-03-21T15:08:17.191Z,8.57
2023-03-21T15:11:08.564Z,8.35
2023-03-21T15:13:57.139Z,7.50
2023-03-21T15:16:45.089Z,7.75
2023-03-21T15:19:38.301Z,8.57
2023-03-21T15:22:38.597Z,8.20
2023-03-21T15:25:31.142Z,7.95
2023-03-21T15:28:19.244Z,7.47
2023-03-21T15:31:16.461Z,6.55
2023-03-21T15:34:07.287Z,6.05
2023-03-21T15:37:08.433Z,7.03
2023-03-21T15:40:15.965Z,8.57
2023-03-21T15:43:19.012Z,7.93
2023-03-21T15:46:18.349Z,10.45
2023-03-21T15:49:08.998Z,8.65
2023-03-21T15:51:59.652Z,16.05
2023-03-21T15:54:56.984Z,18.42
2023-03-21T15:57:47.755Z,10.98
2023-03-21T16:00:44.739Z,8.55
2023-03-21T16:03:40.750Z,9.15
2023-03-21T16:06:34.279Z,8.73
2023-03-21T16:09:24.917Z,9.25
2023-03-21T16:12:17.012Z,8.95
2023-03-21T16:15:07.290Z,9.23
2023-03-21T16:18:01.201Z,11.48
2023-03-21T16:20:50.423Z,13.57
2023-03-21T16:23:38.140Z,11.07
2023-03-21T16:26:32.302Z,12.32
2023-03-21T16:29:20.193Z,14.82
2023-03-21T16:32:15.753Z,16.85
2023-03-21T16:35:04.406Z,18.58
2023-03-21T16:37:52.115Z,13.20
2023-03-21T16:40:42.268Z,10.48
2023-03-21T16:43:30.281Z,9.43
2023-03-21T16:46:23.871Z,10.10
2023-03-21T16:49:26.994Z,9.43
2023-03-21T16:52:15.316Z,9.40
2023-03-21T16:55:03.171Z,9.63
2023-03-21T16:57:54.873Z,9.85
2023-03-21T17:00:42.716Z,9.70
2023-03-21T17:03:30.482Z,8.77
2023-03-21T17:06:23.558Z,14.70
2023-03-21T17:09:13.918Z,10.65
2023-03-21T17:12:01.778Z,9.48
2023-03-21T17:14:49.729Z,10.32
2023-03-21T17:17:40.632Z,9.88
2023-03-21T17:20:34.736Z,8.77
2023-03-21T17:23:22.639Z,9.57
2023-03-21T17:26:18.459Z,14.40
2023-03-21T17:29:06.606Z,12.07
2023-03-21T17:31:54.474Z,10.07
2023-03-21T17:34:42.276Z,7.95
2023-03-21T17:37:32.592Z,10.05
2023-03-21T17:40:27.431Z,11.50
2023-03-21T17:43:18.523Z,11.27
2023-03-21T17:46:06.294Z,10.05
2023-03-21T17:48:54.236Z,9.18
2023-03-21T17:51:43.448Z,9.02
2023-03-21T17:54:32.298Z,7.90
2023-03-21T17:57:22.734Z,9.07
2023-03-21T18:00:23.145Z,8.95
2023-03-21T18:03:10.904Z,9.05
2023-03-21T18:05:59.854Z,9.07
2023-03-21T18:08:52.984Z,8.63
2023-03-21T18:11:41.469Z,9.43
2023-03-21T18:14:30.745Z,9.70
2023-03-21T18:17:21.602Z,9.10
2023-03-21T18:20:17.197Z,11.07
2023-03-21T18:23:05.135Z,9.85
2023-03-21T18:25:53.323Z,9.88
2023-03-21T18:28:41.747Z,10.75
2023-03-21T18:31:42.735Z,12.02
2023-03-21T18:34:35.132Z,11.18
2023-03-21T18:37:23.101Z,10.85
2023-03-21T18:40:14.685Z,11.38
2023-03-21T18:46:14.008Z,12.50
2023-03-21T18:49:33.545Z,15.70
2023-03-21T18:52:13.554Z,12.20
2023-03-21T18:55:01.354Z,17.25
2023-03-21T18:57:49.084Z,17.55
2023-03-21T19:00:37.586Z,15.27
2023-03-21T19:03:35.705Z,12.30
2023-03-21T19:06:28.423Z,13.63
2023-03-21T19:09:18.182Z,13.18
2023-03-21T19:12:06.728Z,12.52
2023-03-21T19:14:55.881Z,12.25
2023-03-21T19:20:55.898Z,12.57
2023-03-21T19:26:54.698Z,10.05
2023-03-21T19:29:42.755Z,12.10
2023-03-21T19:32:31.072Z,9.50
2023-03-21T19:35:20.376Z,11.35
2023-03-21T19:38:08.338Z,9.75
2023-03-21T19:41:01.155Z,10.65
2023-03-21T19:43:55.106Z,10.50
2023-03-21T19:46:44.310Z,10.57
2023-03-21T19:50:04.666Z,10.05
2023-03-21T19:52:39.916Z,10.18
2023-03-21T19:55:27.974Z,10.98
2023-03-21T19:58:22.682Z,9.98
2023-03-21T20:01:11.754Z,12.00
2023-03-21T20:03:59.993Z,10.52
2023-03-21T20:06:47.801Z,12.75
2023-03-21T20:09:51.149Z,12.82
2023-03-21T20:12:40.031Z,12.32
2023-03-21T20:15:29.911Z,13.00
2023-03-21T20:18:30.464Z,13.43
2023-03-21T20:21:25.426Z,13.63
2023-03-21T20:24:13.939Z,13.02
2023-03-21T20:27:01.660Z,12.15
2023-03-21T20:30:09.174Z,12.68
2023-03-21T20:32:57.767Z,10.68
2023-03-21T20:36:19.786Z,11.38
2023-03-21T20:38:42.571Z,10.20
2023-03-21T20:41:30.549Z,8.98
2023-03-21T20:44:56.001Z,9.50
2023-03-21T20:47:27.960Z,8.38
2023-03-21T20:50:16.088Z,9.30
2023-03-21T20:53:07.316Z,7.70
2023-03-21T20:55:55.336Z,8.05
2023-03-21T20:59:01.953Z,7.90
2023-03-21T21:01:51.494Z,8.20
2023-03-21T21:05:08.150Z,9.00
2023-03-21T21:07:49.300Z,8.18
2023-03-21T21:11:02.714Z,9.32
2023-03-21T21:13:47.146Z,13.30
2023-03-21T21:16:35.134Z,10.27
2023-03-21T21:19:22.818Z,9.73
2023-03-21T21:22:10.612Z,7.65
2023-03-21T21:24:58.312Z,8.02
2023-03-21T21:27:46.563Z,6.30
2023-03-21T21:30:38.359Z,6.97
2023-03-21T21:33:29.337Z,6.90
2023-03-21T21:36:17.212Z,7.20
2023-03-21T21:39:06.287Z,7.82
2023-03-21T21:41:54.529Z,7.10
2023-03-21T21:44:45.115Z,8.32
2023-03-21T21:47:32.839Z,8.25
2023-03-21T21:50:22.373Z,7.57
2023-03-21T21:53:11.977Z,8.48
2023-03-21T21:56:03.691Z,7.72
2023-03-21T21:58:53.462Z,8.05
2023-03-21T22:01:42.539Z,7.47
2023-03-21T22:04:30.458Z,7.57
2023-03-21T22:07:21.416Z,8.13
2023-03-21T22:10:09.455Z,7.15
2023-03-21T22:12:57.199Z,6.82
2023-03-21T22:15:55.496Z,8.48
2023-03-21T22:18:43.437Z,7.60
2023-03-21T22:21:31.307Z,9.10
2023-03-21T22:24:18.975Z,10.10
2023-03-21T22:27:06.720Z,9.93
2023-03-21T22:29:56.983Z,9.70
2023-03-21T22:32:56.384Z,10.95
2023-03-21T22:35:51.925Z,9.55
2023-03-21T22:38:42.189Z,10.45
2023-03-21T22:41:32.382Z,10.75
2023-03-21T22:44:23.050Z,15.00
2023-03-21T22:47:11.313Z,15.70
2023-03-21T22:50:06.178Z,15.63
2023-03-21T22:53:29.678Z,14.75
2023-03-21T22:56:17.703Z,12.85
2023-03-21T22:59:05.468Z,14.15
2023-03-21T23:01:53.411Z,10.85
2023-03-21T23:04:43.569Z,11.73
2023-03-21T23:07:31.272Z,11.82
2023-03-21T23:10:19.368Z,13.38
2023-03-21T23:13:07.449Z,11.68
2023-03-21T23:15:55.312Z,12.50
2023-03-21T23:18:43.924Z,10.82
2023-03-21T23:21:34.382Z,10.88
2023-03-21T23:24:24.578Z,11.82
2023-03-21T23:27:22.108Z,10.60
2023-03-21T23:30:19.714Z,10.70
2023-03-21T23:33:07.871Z,11.48
2023-03-21T23:35:55.971Z,12.13
2023-03-21T23:38:44.768Z,13.10
2023-03-21T23:41:32.556Z,12.98
2023-03-21T23:44:20.377Z,13.43
2023-03-21T23:47:08.514Z,11.23
2023-03-21T23:49:56.295Z,13.45
2023-03-21T23:52:44.959Z,14.18
2023-03-21T23:55:38.124Z,13.45
2023-03-21T23:58:28.631Z,13.68
